Bookmark and Share
Track history (hours):
 

Edgar B Speer

More information available from US FCC via Universal Licensing System and Coast Guard Vessel Documentation Center.

Last reported at 2014-Apr-22 03:28 UTC. Time now 2014-Apr-24 14:09 UTC.
Position N 44°60' W 086°30'.

Length 306 m; draft 8 m.

Type: Cargo ship. MMSI: 366971330.

NotesDate/timePositionNaut miles runAvg speedWind from/ knotsBaromVisibWave heightAir tempDewpointWater temp
2014-Apr-22 03:28N 44°60' W 086°30'2813.5
2014-Apr-22 01:24N 45°27' W 086°19'1512.5
2014-Apr-22 00:13N 45°39' W 086°08'812.6
2014-Apr-21 23:33N 45°44' W 085°58'1313.1
2014-Apr-21 22:33N 45°51' W 085°42'1111.4
2014-Apr-21 21:33N 45°53' W 085°26'1212.4
2014-Apr-21 20:33N 45°51' W 085°08'1212.2
2014-Apr-21 19:33N 45°50' W 084°51'10 9.9
2014-Apr-21 18:33N 45°51' W 084°37'9 9.1
2014-Apr-21 17:33N 45°52' W 084°24'1 1.3
2014-Apr-21 16:33N 45°53' W 084°22'4 4.1
2014-Apr-21 15:33N 45°55' W 084°17'0 0.1
2014-Apr-21 14:33N 45°55' W 084°17'0 0.0
2014-Apr-21 13:33N 45°55' W 084°17'0 0.0
2014-Apr-21 12:33N 45°55' W 084°17'0 0.0
2014-Apr-21 11:33N 45°55' W 084°17'0 0.1
2014-Apr-21 10:33N 45°55' W 084°17'0 0.1
2014-Apr-21 09:33N 45°55' W 084°17'0 0.2
2014-Apr-21 08:27N 45°55' W 084°17'0 0.1
2014-Apr-21 07:33N 45°55' W 084°17'0 0.1
2014-Apr-21 06:33N 45°55' W 084°17'0 0.2
2014-Apr-21 05:33N 45°55' W 084°17'8 7.6
2014-Apr-21 04:33N 45°54' W 084°06'14 6.9
2014-Apr-21 02:30N 46°08' W 084°01'8 8.1
2014-Apr-21 01:33N 46°14' W 084°06'7 6.0
2014-Apr-21 00:21N 46°21' W 084°11'  

Dump ship's entire track history

sailing weather and tide predictions

Edgar B Speer — WQZ9670 — position and weather